createdAt,value
2023-02-14T00:02:23.351Z,10.35
2023-02-14T00:04:49.931Z,10.30
2023-02-14T00:07:16.517Z,12.13
2023-02-14T00:09:43.021Z,11.38
2023-02-14T00:12:09.595Z,11.70
2023-02-14T00:14:54.588Z,9.55
2023-02-14T00:17:21.114Z,11.63
2023-02-14T00:19:47.663Z,9.10
2023-02-14T00:22:14.288Z,10.02
2023-02-14T00:24:40.843Z,9.27
2023-02-14T00:27:07.426Z,10.20
2023-02-14T00:29:34.495Z,9.43
2023-02-14T00:32:01.517Z,9.15
2023-02-14T00:34:28.335Z,11.00
2023-02-14T00:39:21.325Z,8.85
2023-02-14T00:41:47.931Z,10.40
2023-02-14T00:44:14.529Z,10.02
2023-02-14T00:46:41.809Z,10.50
2023-02-14T00:49:08.789Z,9.18
2023-02-14T00:51:35.493Z,9.57
2023-02-14T00:54:02.266Z,10.55
2023-02-14T00:58:55.397Z,9.35
2023-02-14T01:01:22.255Z,10.15
2023-02-14T01:06:16.035Z,8.75
2023-02-14T01:08:42.781Z,10.82
2023-02-14T01:13:41.005Z,9.93
2023-02-14T01:16:09.588Z,9.02
2023-02-14T01:18:37.064Z,11.18
2023-02-14T01:21:14.465Z,10.10
2023-02-14T01:26:08.757Z,9.88
2023-02-14T01:28:35.836Z,8.88
2023-02-14T01:31:07.801Z,9.82
2023-02-14T01:33:34.497Z,9.57
2023-02-14T01:36:01.022Z,9.85
2023-02-14T01:38:27.566Z,8.88
2023-02-14T01:40:54.043Z,9.57
2023-02-14T01:43:20.569Z,9.25
2023-02-14T01:45:47.211Z,8.77
2023-02-14T01:48:15.335Z,9.40
2023-02-14T01:50:44.945Z,9.95
2023-02-14T01:53:21.330Z,9.02
2023-02-14T01:55:56.931Z,10.40
2023-02-14T01:58:27.325Z,9.45
2023-02-14T02:01:00.222Z,9.30
2023-02-14T02:03:32.661Z,9.02
2023-02-14T02:06:14.052Z,10.00
2023-02-14T02:08:47.970Z,9.80
2023-02-14T02:11:14.480Z,8.60
2023-02-14T02:13:40.967Z,8.85
2023-02-14T02:16:33.521Z,8.15
2023-02-14T02:19:08.898Z,10.57
2023-02-14T02:21:54.209Z,9.70
2023-02-14T02:24:26.361Z,9.20
2023-02-14T02:27:28.284Z,10.45
2023-02-14T02:29:57.430Z,9.65
2023-02-14T02:32:29.621Z,9.02
2023-02-14T02:35:05.641Z,9.30
2023-02-14T02:38:05.356Z,7.82
2023-02-14T02:41:04.076Z,9.73
2023-02-14T02:43:55.366Z,8.70
2023-02-14T02:46:48.516Z,9.55
2023-02-14T02:49:50.463Z,8.50
2023-02-14T02:52:56.586Z,8.40
2023-02-14T02:55:30.461Z,8.15
2023-02-14T02:57:57.518Z,9.23
2023-02-14T03:00:25.087Z,8.82
2023-02-14T03:03:27.709Z,8.98
2023-02-14T03:05:54.605Z,9.77
2023-02-14T03:08:21.134Z,9.63
2023-02-14T03:10:47.670Z,8.43
2023-02-14T03:13:42.156Z,8.80
2023-02-14T03:16:28.716Z,7.88
2023-02-14T03:19:18.437Z,9.07
2023-02-14T03:22:10.680Z,10.20
2023-02-14T03:25:01.810Z,8.63
2023-02-14T03:27:50.053Z,8.13
2023-02-14T03:30:45.724Z,8.85
2023-02-14T03:33:38.842Z,9.52
2023-02-14T03:36:31.717Z,8.80
2023-02-14T03:39:22.848Z,9.75
2023-02-14T03:41:55.142Z,9.30
2023-02-14T03:44:25.914Z,8.38
2023-02-14T03:46:58.098Z,9.07
2023-02-14T03:49:29.823Z,9.13
2023-02-14T03:51:58.656Z,8.25
2023-02-14T03:54:27.214Z,9.20
2023-02-14T03:57:01.524Z,9.52
2023-02-14T03:59:29.324Z,7.28
2023-02-14T04:02:08.849Z,8.38
2023-02-14T04:04:40.621Z,7.18
2023-02-14T04:07:22.289Z,8.23
2023-02-14T04:09:49.546Z,7.10
2023-02-14T04:12:21.733Z,8.93
2023-02-14T04:14:50.469Z,7.88
2023-02-14T04:17:35.299Z,8.80
2023-02-14T04:20:01.780Z,9.15
2023-02-14T04:22:28.306Z,7.55
2023-02-14T04:24:54.753Z,8.95
2023-02-14T04:27:21.301Z,9.15
2023-02-14T04:29:49.903Z,8.27
2023-02-14T04:32:20.336Z,7.95
2023-02-14T04:34:47.057Z,8.43
2023-02-14T04:37:15.561Z,8.18
2023-02-14T04:39:42.020Z,9.27
2023-02-14T04:42:09.342Z,8.30
2023-02-14T04:44:38.212Z,9.30
2023-02-14T04:47:05.914Z,8.65
2023-02-14T04:49:32.932Z,8.85
2023-02-14T04:51:59.914Z,9.93
2023-02-14T04:54:26.525Z,9.80
2023-02-14T04:56:53.221Z,9.02
2023-02-14T04:59:19.848Z,8.98
2023-02-14T05:01:46.402Z,8.10
2023-02-14T05:04:12.944Z,8.57
2023-02-14T05:06:39.426Z,8.05
2023-02-14T05:09:06.211Z,8.73
2023-02-14T05:13:59.323Z,8.25
2023-02-14T05:16:26.016Z,7.05
2023-02-14T05:21:19.028Z,7.35
2023-02-14T05:23:45.693Z,7.18
2023-02-14T05:26:12.240Z,7.07
2023-02-14T05:31:09.075Z,6.15
2023-02-14T05:33:35.964Z,7.20
2023-02-14T05:38:30.658Z,7.05
2023-02-14T05:40:57.387Z,8.15
2023-02-14T05:45:50.556Z,7.55
2023-02-14T05:48:18.018Z,8.30
2023-02-14T05:50:45.631Z,8.98
2023-02-14T05:53:12.626Z,9.00
2023-02-14T05:55:39.274Z,8.93
2023-02-14T05:58:06.087Z,8.40
2023-02-14T06:02:59.053Z,8.38
2023-02-14T06:05:25.735Z,8.98
2023-02-14T06:07:52.365Z,7.88
2023-02-14T06:10:23.308Z,7.40
2023-02-14T06:12:51.602Z,7.03
2023-02-14T06:15:18.241Z,8.40
2023-02-14T06:17:44.889Z,7.38
2023-02-14T06:20:11.880Z,8.82
2023-02-14T06:22:39.327Z,7.80
2023-02-14T06:25:06.523Z,10.35
2023-02-14T06:27:33.245Z,8.05
2023-02-14T06:32:27.030Z,8.10
2023-02-14T06:34:53.614Z,7.07
2023-02-14T06:37:20.290Z,8.43
2023-02-14T06:39:46.865Z,7.80
2023-02-14T06:42:13.387Z,8.32
2023-02-14T06:44:39.856Z,8.93
2023-02-14T06:47:06.400Z,8.60
2023-02-14T06:49:32.869Z,7.53
2023-02-14T06:51:59.389Z,8.40
2023-02-14T06:54:25.929Z,8.20
2023-02-14T06:56:52.445Z,8.82
2023-02-14T06:59:18.949Z,9.13
2023-02-14T07:01:45.517Z,9.98
2023-02-14T07:04:12.112Z,10.45
2023-02-14T07:06:38.861Z,11.13
2023-02-14T07:11:32.190Z,11.95
2023-02-14T07:13:58.715Z,10.35
2023-02-14T07:16:25.286Z,10.07
2023-02-14T07:18:51.793Z,11.05
2023-02-14T07:21:18.300Z,10.15
2023-02-14T07:23:47.809Z,9.07
2023-02-14T07:26:18.222Z,10.23
2023-02-14T07:28:45.631Z,9.07
2023-02-14T07:31:12.630Z,9.48
2023-02-14T07:33:39.218Z,8.73
2023-02-14T07:36:07.184Z,8.50
2023-02-14T07:38:34.508Z,8.98
2023-02-14T07:41:01.719Z,9.50
2023-02-14T07:43:28.727Z,8.73
2023-02-14T07:48:22.138Z,8.45
2023-02-14T07:50:48.772Z,9.25
2023-02-14T07:53:15.299Z,11.05
2023-02-14T07:55:41.821Z,12.65
2023-02-14T07:58:08.328Z,12.23
2023-02-14T08:00:34.944Z,10.95
2023-02-14T08:03:01.562Z,11.32
2023-02-14T08:05:28.191Z,9.65
2023-02-14T08:07:54.728Z,9.77
2023-02-14T08:10:21.256Z,9.23
2023-02-14T08:13:00.090Z,8.70
2023-02-14T08:15:50.073Z,7.88
2023-02-14T08:18:18.374Z,8.00
2023-02-14T08:20:49.956Z,8.50
2023-02-14T08:23:17.263Z,8.90
2023-02-14T08:25:43.801Z,8.75
2023-02-14T08:28:10.625Z,8.23
2023-02-14T08:33:05.376Z,7.70
2023-02-14T08:35:31.880Z,7.75
2023-02-14T08:37:58.484Z,7.00
2023-02-14T08:40:25.305Z,7.57
2023-02-14T08:45:18.477Z,8.02
2023-02-14T08:47:45.004Z,8.57
2023-02-14T08:50:14.574Z,8.00
2023-02-14T08:52:43.366Z,8.65
2023-02-14T08:55:11.658Z,11.00
2023-02-14T08:57:38.512Z,9.52
2023-02-14T09:00:07.313Z,8.63
2023-02-14T09:02:34.561Z,10.50
2023-02-14T09:05:02.106Z,8.68
2023-02-14T09:07:28.617Z,9.45
2023-02-14T09:09:55.165Z,9.32
2023-02-14T09:12:21.972Z,8.65
2023-02-14T09:17:15.796Z,7.63
2023-02-14T09:19:42.440Z,10.30
2023-02-14T09:22:10.955Z,11.43
2023-02-14T09:24:39.066Z,14.40
2023-02-14T09:27:06.294Z,14.43
2023-02-14T09:29:33.773Z,14.57
2023-02-14T09:32:02.195Z,10.10
2023-02-14T09:34:30.075Z,9.25
2023-02-14T09:37:15.412Z,9.88
2023-02-14T09:39:41.951Z,8.60
2023-02-14T09:42:48.484Z,9.20
2023-02-14T09:45:20.412Z,8.57
2023-02-14T09:47:52.251Z,8.23
2023-02-14T09:50:30.696Z,8.80
2023-02-14T10:01:15.488Z,8.50
2023-02-14T10:04:39.873Z,7.72
2023-02-14T10:07:21.613Z,8.15
2023-02-14T10:10:06.176Z,8.48
2023-02-14T10:12:40.302Z,8.13
2023-02-14T10:15:15.898Z,7.80
2023-02-14T10:17:47.087Z,8.20
2023-02-14T10:20:34.740Z,7.28
2023-02-14T10:23:16.524Z,7.57
2023-02-14T10:25:48.790Z,7.32
2023-02-14T10:28:22.767Z,7.32
2023-02-14T10:31:02.566Z,8.13
2023-02-14T10:33:33.339Z,8.18
2023-02-14T10:36:05.773Z,8.60
2023-02-14T10:38:49.169Z,7.72
2023-02-14T10:41:34.240Z,6.85
2023-02-14T10:44:20.602Z,7.53
2023-02-14T10:47:10.166Z,7.95
2023-02-14T10:49:46.924Z,6.97
2023-02-14T10:52:16.377Z,7.07
2023-02-14T10:54:50.655Z,7.25
2023-02-14T10:57:26.059Z,7.75
2023-02-14T11:00:00.962Z,6.93
2023-02-14T11:02:41.390Z,7.50
2023-02-14T11:05:18.946Z,7.43
2023-02-14T11:07:45.395Z,9.50
2023-02-14T11:10:14.646Z,7.65
2023-02-14T11:12:41.914Z,7.00
2023-02-14T11:15:11.841Z,7.80
2023-02-14T11:17:38.349Z,6.70
2023-02-14T11:20:22.576Z,7.32
2023-02-14T11:22:50.205Z,7.20
2023-02-14T11:25:22.804Z,7.20
2023-02-14T11:27:56.634Z,7.28
2023-02-14T11:30:39.120Z,6.90
2023-02-14T11:33:09.377Z,6.70
2023-02-14T11:35:37.061Z,6.38
2023-02-14T11:38:21.967Z,6.43
2023-02-14T11:40:55.430Z,6.00
2023-02-14T11:43:35.308Z,7.10
2023-02-14T11:46:28.074Z,5.60
2023-02-14T11:48:57.449Z,5.47
2023-02-14T11:51:34.096Z,6.57
2023-02-14T11:54:05.043Z,5.20
2023-02-14T11:56:48.851Z,5.15
2023-02-14T11:59:37.038Z,5.28
2023-02-14T12:02:38.167Z,4.82
2023-02-14T12:05:20.693Z,5.22
2023-02-14T12:07:52.718Z,4.35
2023-02-14T12:10:27.347Z,5.40
2023-02-14T12:13:08.942Z,4.38
2023-02-14T12:15:49.162Z,3.85
2023-02-14T12:18:34.566Z,4.30
2023-02-14T12:21:12.953Z,4.32
2023-02-14T12:23:50.869Z,3.90
2023-02-14T12:26:33.078Z,3.85
2023-02-14T12:29:12.233Z,3.75
2023-02-14T12:31:38.874Z,3.97
2023-02-14T12:34:05.847Z,4.05
2023-02-14T12:37:02.137Z,3.30
2023-02-14T12:39:51.550Z,3.63
2023-02-14T12:42:26.827Z,3.38
2023-02-14T12:45:02.585Z,3.72
2023-02-14T12:47:48.362Z,3.17
2023-02-14T12:50:43.919Z,2.80
2023-02-14T12:53:45.408Z,3.20
2023-02-14T12:56:18.323Z,4.15
2023-02-14T12:58:57.138Z,5.03
2023-02-14T13:01:38.880Z,3.60
2023-02-14T13:04:45.176Z,3.03
2023-02-14T13:07:45.160Z,3.40
2023-02-14T13:10:19.546Z,3.03
2023-02-14T13:13:02.819Z,2.90
2023-02-14T13:15:38.408Z,2.90
2023-02-14T13:18:07.812Z,3.15
2023-02-14T13:20:42.959Z,2.83
2023-02-14T13:23:34.894Z,3.17
2023-02-14T13:26:05.654Z,2.80
2023-02-14T13:28:33.784Z,2.60
2023-02-14T13:31:01.941Z,2.72
2023-02-14T13:33:35.241Z,3.00
2023-02-14T13:36:06.120Z,2.80
2023-02-14T13:38:32.946Z,2.45
2023-02-14T13:41:01.797Z,3.40
2023-02-14T13:44:08.190Z,2.45
2023-02-14T13:46:34.651Z,2.65
2023-02-14T13:49:07.867Z,3.88
2023-02-14T13:51:48.871Z,2.80
2023-02-14T13:54:33.596Z,2.15
2023-02-14T13:57:01.816Z,2.78
2023-02-14T13:59:37.319Z,2.33
2023-02-14T14:02:43.264Z,2.33
2023-02-14T14:05:32.515Z,1.98
2023-02-14T14:08:31.970Z,2.97
2023-02-14T14:11:32.334Z,2.42
2023-02-14T14:14:20.654Z,2.00
2023-02-14T14:16:58.763Z,2.28
2023-02-14T14:19:25.165Z,1.92
2023-02-14T14:24:31.174Z,1.90
2023-02-14T14:27:29.856Z,3.05
2023-02-14T14:30:05.454Z,2.30
2023-02-14T14:32:37.314Z,2.63
2023-02-14T14:35:08.360Z,2.05
2023-02-14T14:37:37.246Z,2.00
2023-02-14T14:40:07.083Z,3.50
2023-02-14T14:42:39.206Z,2.33
2023-02-14T14:45:21.673Z,2.17
2023-02-14T14:47:49.033Z,2.50
2023-02-14T14:50:19.772Z,2.25
2023-02-14T14:52:49.024Z,2.30
2023-02-14T14:55:24.310Z,2.30
2023-02-14T14:57:57.122Z,2.33
2023-02-14T15:00:29.495Z,2.42
2023-02-14T15:02:57.401Z,2.47
2023-02-14T15:05:34.163Z,2.83
2023-02-14T15:08:33.077Z,2.85
2023-02-14T15:11:10.427Z,2.67
2023-02-14T15:13:49.918Z,2.40
2023-02-14T15:16:19.256Z,3.25
2023-02-14T15:18:46.260Z,3.50
2023-02-14T15:21:13.450Z,3.30
2023-02-14T15:23:44.038Z,3.50
2023-02-14T15:26:18.360Z,4.22
2023-02-14T15:28:53.615Z,4.80
2023-02-14T15:31:20.362Z,4.00
2023-02-14T15:33:47.054Z,4.10
2023-02-14T15:36:20.426Z,5.15
2023-02-14T15:38:47.419Z,4.32
2023-02-14T15:41:14.471Z,4.53
2023-02-14T15:43:41.345Z,4.95
2023-02-14T15:46:29.018Z,5.05
2023-02-14T15:48:58.735Z,5.13
2023-02-14T15:51:29.257Z,5.68
2023-02-14T15:54:02.668Z,5.30
2023-02-14T15:56:32.370Z,5.68
2023-02-14T15:59:02.614Z,5.20
2023-02-14T16:01:31.520Z,5.10
2023-02-14T16:04:01.810Z,5.40
2023-02-14T16:06:44.677Z,5.32
2023-02-14T16:09:27.911Z,5.65
2023-02-14T16:11:54.948Z,5.10
2023-02-14T16:14:36.345Z,5.47
2023-02-14T16:17:11.720Z,5.20
2023-02-14T16:19:46.021Z,5.45
2023-02-14T16:22:24.954Z,5.18
2023-02-14T16:24:51.413Z,6.65
2023-02-14T16:27:17.913Z,6.10
2023-02-14T16:32:20.791Z,5.20
2023-02-14T16:34:48.397Z,5.78
2023-02-14T16:37:22.367Z,6.35
2023-02-14T16:39:53.975Z,6.32
2023-02-14T16:42:20.589Z,6.43
2023-02-14T16:47:16.088Z,5.47
2023-02-14T16:49:42.632Z,6.25
2023-02-14T16:52:23.885Z,6.65
2023-02-14T16:54:50.656Z,7.40
2023-02-14T16:59:47.251Z,6.05
2023-02-14T17:02:14.343Z,6.70
2023-02-14T17:04:40.875Z,6.53
2023-02-14T17:07:08.018Z,6.40
2023-02-14T17:09:40.064Z,7.03
2023-02-14T17:12:16.136Z,7.28
2023-02-14T17:14:47.059Z,6.75
2023-02-14T17:17:14.107Z,6.50
2023-02-14T17:19:40.570Z,5.93
2023-02-14T17:22:07.758Z,8.27
2023-02-14T17:24:34.235Z,7.43
2023-02-14T17:27:00.736Z,7.80
2023-02-14T17:29:27.192Z,7.55
2023-02-14T17:31:53.775Z,7.95
2023-02-14T17:34:20.301Z,7.97
2023-02-14T17:36:46.987Z,9.90
2023-02-14T17:41:41.263Z,9.55
2023-02-14T17:44:07.712Z,8.32
2023-02-14T17:46:34.222Z,9.38
2023-02-14T17:49:03.876Z,8.65
2023-02-14T17:51:30.408Z,9.43
2023-02-14T17:53:58.986Z,11.40
2023-02-14T17:56:26.865Z,12.43
2023-02-14T17:58:55.222Z,11.98
2023-02-14T18:01:25.291Z,9.55
2023-02-14T18:03:53.846Z,8.32
2023-02-14T18:06:21.383Z,8.60
2023-02-14T18:08:51.790Z,9.10
2023-02-14T18:11:20.412Z,9.52
2023-02-14T18:13:47.352Z,8.82
2023-02-14T18:16:16.146Z,9.10
2023-02-14T18:18:42.627Z,9.23
2023-02-14T18:21:11.906Z,9.25
2023-02-14T18:23:38.912Z,12.77
2023-02-14T18:26:10.392Z,9.48
2023-02-14T18:28:36.973Z,10.13
2023-02-14T18:31:04.990Z,11.45
2023-02-14T18:33:31.533Z,11.27
2023-02-14T18:36:00.793Z,9.35
2023-02-14T18:38:27.408Z,9.50
2023-02-14T18:40:53.864Z,10.32
2023-02-14T18:43:20.380Z,15.48
2023-02-14T18:45:47.142Z,14.27
2023-02-14T18:50:40.072Z,11.77
2023-02-14T18:53:06.641Z,10.93
2023-02-14T18:55:33.451Z,10.13
2023-02-14T19:00:27.185Z,8.85
2023-02-14T19:02:53.611Z,9.43
2023-02-14T19:05:20.088Z,9.43
2023-02-14T19:07:46.546Z,9.43
2023-02-14T19:10:13.099Z,9.20
2023-02-14T19:12:39.942Z,9.23
2023-02-14T19:17:33.985Z,10.13
2023-02-14T19:20:00.589Z,9.75
2023-02-14T19:22:27.079Z,10.02
2023-02-14T19:24:53.831Z,14.23
2023-02-14T19:27:21.673Z,14.43
2023-02-14T19:29:48.343Z,14.60
2023-02-14T19:34:41.395Z,15.50
2023-02-14T19:37:07.946Z,17.83
2023-02-14T19:39:34.451Z,13.77
2023-02-14T19:42:01.226Z,15.13
2023-02-14T19:46:56.677Z,11.10
2023-02-14T19:49:23.452Z,10.38
2023-02-14T19:54:18.839Z,9.73
2023-02-14T19:56:46.775Z,11.27
2023-02-14T19:59:19.994Z,10.68
2023-02-14T20:01:52.154Z,11.88
2023-02-14T20:04:22.321Z,13.63
2023-02-14T20:06:49.827Z,12.95
2023-02-14T20:09:17.466Z,13.77
2023-02-14T20:11:50.204Z,15.98
2023-02-14T20:14:28.464Z,13.65
2023-02-14T20:16:56.833Z,12.38
2023-02-14T20:19:27.009Z,20.08
2023-02-14T20:21:54.255Z,22.35
2023-02-14T20:24:23.444Z,23.45
2023-02-14T20:26:51.864Z,24.50
2023-02-14T20:29:19.826Z,14.68
2023-02-14T20:31:51.157Z,13.15
2023-02-14T20:34:19.102Z,12.27
2023-02-14T20:36:52.942Z,11.50
2023-02-14T20:39:21.469Z,11.27
2023-02-14T20:41:50.999Z,10.65
2023-02-14T20:44:21.955Z,9.52
2023-02-14T20:46:51.934Z,10.07
2023-02-14T20:49:19.857Z,9.27
2023-02-14T20:51:49.667Z,9.45
2023-02-14T20:54:18.124Z,9.25
2023-02-14T20:56:45.504Z,8.40
2023-02-14T20:59:12.140Z,9.50
2023-02-14T21:01:39.181Z,9.68
2023-02-14T21:04:05.966Z,8.60
2023-02-14T21:06:34.163Z,9.35
2023-02-14T21:09:01.263Z,8.65
2023-02-14T21:11:27.981Z,8.27
2023-02-14T21:16:27.288Z,8.52
2023-02-14T21:18:58.989Z,8.30
2023-02-14T21:21:34.953Z,8.02
2023-02-14T21:24:13.212Z,8.88
2023-02-14T21:26:40.192Z,7.63
2023-02-14T21:29:07.561Z,8.57
2023-02-14T21:31:34.792Z,9.23
2023-02-14T21:34:02.591Z,11.70
2023-02-14T21:36:31.405Z,10.15
2023-02-14T21:38:59.018Z,10.77
2023-02-14T21:44:01.362Z,10.20
2023-02-14T21:46:31.169Z,11.45
2023-02-14T21:49:18.691Z,9.73
2023-02-14T21:51:46.222Z,8.60
2023-02-14T21:54:13.567Z,8.57
2023-02-14T21:56:41.488Z,8.77
2023-02-14T21:59:09.548Z,8.80
2023-02-14T22:01:39.248Z,8.93
2023-02-14T22:04:09.183Z,8.18
2023-02-14T22:06:38.156Z,8.88
2023-02-14T22:09:08.607Z,8.38
2023-02-14T22:11:35.246Z,8.60
2023-02-14T22:14:02.223Z,8.95
2023-02-14T22:16:29.407Z,8.60
2023-02-14T22:18:55.972Z,7.50
2023-02-14T22:21:25.661Z,8.35
2023-02-14T22:23:53.067Z,7.13
2023-02-14T22:26:19.471Z,8.05
2023-02-14T22:28:47.990Z,9.10
2023-02-14T22:31:16.424Z,8.65
2023-02-14T22:33:43.569Z,8.18
2023-02-14T22:36:10.729Z,9.20
2023-02-14T22:38:38.157Z,10.48
2023-02-14T22:41:13.132Z,8.77
2023-02-14T22:43:40.391Z,9.48
2023-02-14T22:46:10.267Z,7.80
2023-02-14T22:48:37.620Z,7.88
2023-02-14T22:51:21.168Z,8.90
2023-02-14T22:53:49.158Z,7.90
2023-02-14T22:56:16.849Z,8.00
2023-02-14T22:58:44.569Z,7.90
2023-02-14T23:01:18.742Z,8.43
2023-02-14T23:03:46.217Z,8.57
2023-02-14T23:06:13.798Z,9.70
2023-02-14T23:08:45.764Z,9.35
2023-02-14T23:11:15.473Z,9.20
2023-02-14T23:14:00.803Z,8.95
2023-02-14T23:16:45.983Z,8.40
2023-02-14T23:19:35.920Z,8.20
2023-02-14T23:22:08.400Z,7.97
2023-02-14T23:24:35.408Z,7.65
2023-02-14T23:27:02.423Z,8.00
2023-02-14T23:29:29.618Z,7.45
2023-02-14T23:31:56.404Z,9.40
2023-02-14T23:36:52.960Z,8.70
2023-02-14T23:39:19.557Z,9.02
2023-02-14T23:41:48.755Z,8.38
2023-02-14T23:44:21.463Z,7.93
2023-02-14T23:46:49.684Z,9.10
2023-02-14T23:49:16.950Z,8.43
2023-02-14T23:51:45.187Z,9.68
2023-02-14T23:54:11.876Z,8.00
2023-02-14T23:56:38.807Z,8.85
2023-02-14T23:59:07.038Z,6.90
